Observations for LONDON HEATHROW, United Kingdom (EGLL)

EGLL 280520Z 03004KT 330V060 8000 FEW004 BKN006 15/14 Q0998 NOSIG   
EGLL 280450Z AUTO 02004KT 340V060 8000 -RA OVC005 15/14 Q0998 NOSIG 
EGLL 280420Z AUTO 02004KT 320V070 9000 -RA BKN005 15/14 Q0998 NOSIG 
EGLL 280350Z AUTO VRB03KT 9000 BKN005 15/14 Q0998 NOSIG 
EGLL 280320Z 01004KT 330V040 8000 BKN006 15/14 Q0999 NOSIG  
EGLL 280250Z 36004KT 330V040 5000 -RA FEW004 BKN006 15/14 Q0999 TEMPO 4000 RA   
EGLL 280220Z 36005KT 310V040 4000 -DZ BR FEW003 BKN006 15/14 Q0999 NOSIG
EGLL 280150Z AUTO 35004KT 320V030 3700 BR OVC003 15/14 Q0999 RERA REDZ NOSIG
EGLL 280120Z AUTO 35004KT 3800 -DZ OVC004 15/14 Q1000 TEMPO RADZ
EGLL 280050Z AUTO VRB03KT 3300 -RA OVC004 15/14 Q1000 TEMPO RADZ
EGLL 280020Z AUTO VRB03KT 3500 -RADZ BKN004 15/14 Q1001 RERA REDZ TEMPO RADZ
EGLL 272350Z VRB03KT 3500 RA SCT004 BKN006 15/15 Q1001 NOSIG
EGLL 272320Z 04005KT 3500 RA FEW003 SCT004 BKN006 15/15 Q1001 RERA NOSIG
EGLL 272250Z 04004KT 350V060 3600 RA SCT004 BKN006 15/15 Q1002 RERA NOSIG   
EGLL 272220Z 04003KT 3800 RA SCT004 BKN007 15/15 Q1002 NOSIG
EGLL 272150Z 05004KT 020V080 4000 RA SCT005 SCT008 16/15 Q1002 BECMG BKN008 
EGLL 272120Z 05005KT 4000 RA SCT005 BKN008 16/15 Q1003 RERA NOSIG   
EGLL 272050Z 06006KT 3800 RA SCT005 BKN013 16/15 Q1003 NOSIG
EGLL 272020Z 05006KT 3800 RA SCT005 BKN011 16/15 Q1003 NOSIG
EGLL 271950Z 06004KT 4000 -RA SCT005 BKN012 16/15 Q1003 RERA TEMPO RA   
EGLL 271920Z 06005KT 4500 RA FEW004 SCT007 BKN012 16/15 Q1003 TEMPO 6000 -RA BKN015 
EGLL 271850Z 06005KT 4700 RA SCT005 BKN012 17/16 Q1003 TEMPO 6000 -RA BKN015
EGLL 271820Z 09005KT 4800 RA FEW005 SCT007 BKN015 17/16 Q1003 TEMPO 6000 -RA
EGLL 271750Z 08006KT 4800 RA FEW007 BKN013 17/16 Q1003 TEMPO 6000 -RA SCT013
EGLL 271720Z 05005KT 010V080 5000 -RA FEW006 BKN014 17/16 Q1004 TEMPO RA
EGLL 271650Z AUTO 04005KT 6000 -RA SCT006 BKN017 BKN034 18/17 Q1004 TEMPO RA BKN014 
EGLL 271620Z AUTO 04005KT 6000 -RA FEW008/// OVC025/// //////TCU 18/16 Q1004 TEMPO RA BKN014
EGLL 271550Z VRB03KT 8000 -RA FEW009 SCT012 BKN033 18/16 Q1005 TEMPO RA BKN013  
EGLL 271520Z 07005KT 9999 -RA FEW009 BKN012 BKN033 18/16 Q1005 TEMPO SCT012 
EGLL 271450Z AUTO 06005KT 030V100 9999 -RA BKN025/// //////TCU 18/16 Q1005 TEMPO RA 
EGLL 271420Z AUTO 06006KT 9999 FEW032/// OVC039/// //////CB 18/16 Q1005 NOSIG   
EGLL 271350Z AUTO 06007KT 9999 BKN029/// //////CB 18/16 Q1005 NOSIG 
EGLL 271320Z AUTO 04005KT 010V080 9999 OVC030/// 18/16 Q1006 NOSIG  
EGLL 271250Z AUTO 36004KT 310V050 9999 -RA FEW021/// BKN031/// //////CB 18/15 Q1006 NOSIG   
EGLL 271220Z 32004KT 300V360 9999 -RA FEW008CB OVC043 18/15 Q1006 RESHRA NOSIG  
EGLL 271150Z VRB03KT 9999 5000W SHRA FEW022CB BKN045 21/13 Q1006 TEMPO 3000 +SHRA   
EGLL 271120Z AUTO 09006KT 050V120 9999 BKN046/// //////CB 20/12 Q1006 TEMPO 4500 +SHRA  
EGLL 271050Z AUTO 10007KT 060V140 9999 BKN048/// //////CB 20/12 Q1006 TEMPO 4500 +SHRA  
EGLL 271020Z AUTO 12010KT 9999 //////CB 20/12 Q1007 TEMPO SHRA  
EGLL 270950Z AUTO 12010KT 9999 -RA FEW012/// BKN048/// //////CB 19/12 Q1007 TEMPO SHRA  
EGLL 270920Z AUTO 11010KT 9999 BKN048 19/11 Q1007 TEMPO SHRA
EGLL 270850Z AUTO 10009KT 9999 BKN048 19/11 Q1007 NOSIG 
EGLL 270820Z AUTO 10010KT 9999 BKN046 19/11 Q1008 NOSIG 
EGLL 270750Z AUTO 08006KT 9999 BKN043 17/10 Q1008 NOSIG 
EGLL 270720Z AUTO 09008KT 9999 BKN040 17/10 Q1008 NOSIG 
EGLL 270650Z AUTO 09009KT 9999 OVC042 17/09 Q1008 NOSIG 
EGLL 270620Z AUTO 09009KT 9999 OVC042 17/08 Q1009 NOSIG 
EGLL 270550Z AUTO 09009KT 9999 OVC044 17/07 Q1009 NOSIG 
EGLL 270520Z AUTO 10009KT 9999 BKN046 16/07 Q1009 NOSIG 
EGLL 270450Z AUTO 09010KT 9999 OVC044 16/08 Q1009 NOSIG